Aviation Digital Data Service (ADDS)

Output produced by METARs form (0854 UTC 19 November 2018)
found at http://www.aviationweather.gov/metar/data/
 
RJSF 190800Z 31007KT 280V340 9999 FEW030 SCT050 BKN/// 10/05 Q1013
TAF RJSF 190505Z 1906/2012 34013KT 9999 FEW020 BKN040